sensor_id;sensor_type;location;lat;lon;timestamp;P1;durP1;ratioP1;P2;durP2;ratioP2
26478;SDS011;14163;-26.142;27.992;2023-08-07T00:04:14;30.50;;;23.53;;
26478;SDS011;14163;-26.142;27.992;2023-08-07T00:06:44;30.60;;;22.87;;
26478;SDS011;14163;-26.142;27.992;2023-08-07T00:09:15;26.13;;;22.00;;
26478;SDS011;14163;-26.142;27.992;2023-08-07T00:11:45;24.33;;;21.53;;
26478;SDS011;14163;-26.142;27.992;2023-08-07T00:14:15;22.67;;;20.37;;
26478;SDS011;14163;-26.142;27.992;2023-08-07T00:16:44;26.43;;;21.30;;
26478;SDS011;14163;-26.142;27.992;2023-08-07T00:19:15;26.70;;;20.03;;
26478;SDS011;14163;-26.142;27.992;2023-08-07T00:21:44;27.00;;;20.50;;
26478;SDS011;14163;-26.142;27.992;2023-08-07T00:24:13;23.20;;;19.80;;
26478;SDS011;14163;-26.142;27.992;2023-08-07T00:26:43;21.30;;;18.50;;
26478;SDS011;14163;-26.142;27.992;2023-08-07T00:29:12;19.03;;;17.10;;
26478;SDS011;14163;-26.142;27.992;2023-08-07T00:31:41;19.53;;;17.50;;
26478;SDS011;14163;-26.142;27.992;2023-08-07T00:34:10;18.20;;;16.50;;
26478;SDS011;14163;-26.142;27.992;2023-08-07T00:36:41;19.33;;;15.50;;
26478;SDS011;14163;-26.142;27.992;2023-08-07T00:39:11;24.07;;;17.80;;
26478;SDS011;14163;-26.142;27.992;2023-08-07T00:41:40;22.27;;;17.00;;
26478;SDS011;14163;-26.142;27.992;2023-08-07T00:44:09;18.83;;;16.83;;
26478;SDS011;14163;-26.142;27.992;2023-08-07T00:46:38;18.43;;;16.53;;
26478;SDS011;14163;-26.142;27.992;2023-08-07T00:49:08;23.00;;;16.77;;
26478;SDS011;14163;-26.142;27.992;2023-08-07T00:51:41;20.13;;;18.00;;
26478;SDS011;14163;-26.142;27.992;2023-08-07T00:54:11;21.17;;;15.80;;
26478;SDS011;14163;-26.142;27.992;2023-08-07T00:56:45;18.97;;;17.00;;
26478;SDS011;14163;-26.142;27.992;2023-08-07T00:59:15;19.13;;;17.23;;
26478;SDS011;14163;-26.142;27.992;2023-08-07T01:01:44;19.90;;;17.80;;
26478;SDS011;14163;-26.142;27.992;2023-08-07T01:04:13;27.50;;;20.27;;
26478;SDS011;14163;-26.142;27.992;2023-08-07T01:06:44;25.83;;;21.33;;
26478;SDS011;14163;-26.142;27.992;2023-08-07T01:09:14;24.10;;;21.50;;
26478;SDS011;14163;-26.142;27.992;2023-08-07T01:11:43;25.20;;;21.67;;
26478;SDS011;14163;-26.142;27.992;2023-08-07T01:14:18;26.60;;;23.30;;
26478;SDS011;14163;-26.142;27.992;2023-08-07T01:16:52;36.07;;;25.70;;
26478;SDS011;14163;-26.142;27.992;2023-08-07T01:19:29;30.67;;;25.53;;
26478;SDS011;14163;-26.142;27.992;2023-08-07T01:22:08;37.00;;;24.10;;
26478;SDS011;14163;-26.142;27.992;2023-08-07T01:24:39;27.13;;;23.77;;
26478;SDS011;14163;-26.142;27.992;2023-08-07T01:27:18;31.27;;;24.40;;
26478;SDS011;14163;-26.142;27.992;2023-08-07T01:30:02;27.23;;;23.17;;
26478;SDS011;14163;-26.142;27.992;2023-08-07T01:32:42;27.23;;;22.40;;
26478;SDS011;14163;-26.142;27.992;2023-08-07T01:35:17;24.60;;;21.87;;
26478;SDS011;14163;-26.142;27.992;2023-08-07T01:37:53;27.30;;;21.33;;
26478;SDS011;14163;-26.142;27.992;2023-08-07T01:40:23;26.47;;;22.90;;
26478;SDS011;14163;-26.142;27.992;2023-08-07T01:42:52;28.90;;;23.23;;
26478;SDS011;14163;-26.142;27.992;2023-08-07T01:45:22;30.00;;;24.10;;
26478;SDS011;14163;-26.142;27.992;2023-08-07T01:47:52;34.10;;;24.63;;
26478;SDS011;14163;-26.142;27.992;2023-08-07T01:50:22;36.10;;;27.27;;
26478;SDS011;14163;-26.142;27.992;2023-08-07T01:52:53;40.17;;;28.30;;
26478;SDS011;14163;-26.142;27.992;2023-08-07T01:55:22;35.00;;;28.90;;
26478;SDS011;14163;-26.142;27.992;2023-08-07T01:57:52;40.30;;;31.00;;
26478;SDS011;14163;-26.142;27.992;2023-08-07T02:00:21;43.70;;;32.90;;
26478;SDS011;14163;-26.142;27.992;2023-08-07T02:02:50;46.27;;;33.40;;
26478;SDS011;14163;-26.142;27.992;2023-08-07T02:05:20;47.90;;;34.20;;
26478;SDS011;14163;-26.142;27.992;2023-08-07T02:07:49;46.13;;;31.77;;
26478;SDS011;14163;-26.142;27.992;2023-08-07T02:10:20;48.00;;;32.83;;
26478;SDS011;14163;-26.142;27.992;2023-08-07T02:12:49;42.80;;;32.53;;
26478;SDS011;14163;-26.142;27.992;2023-08-07T02:15:19;46.27;;;31.70;;
26478;SDS011;14163;-26.142;27.992;2023-08-07T02:17:48;53.27;;;33.63;;
26478;SDS011;14163;-26.142;27.992;2023-08-07T02:20:17;40.83;;;32.10;;
26478;SDS011;14163;-26.142;27.992;2023-08-07T02:22:47;43.30;;;30.17;;
26478;SDS011;14163;-26.142;27.992;2023-08-07T02:25:16;44.10;;;30.63;;
26478;SDS011;14163;-26.142;27.992;2023-08-07T02:27:47;39.77;;;29.90;;
26478;SDS011;14163;-26.142;27.992;2023-08-07T02:30:16;41.43;;;29.40;;
26478;SDS011;14163;-26.142;27.992;2023-08-07T02:32:46;40.57;;;31.47;;
26478;SDS011;14163;-26.142;27.992;2023-08-07T02:35:15;38.50;;;29.83;;
26478;SDS011;14163;-26.142;27.992;2023-08-07T02:37:44;42.90;;;30.90;;
26478;SDS011;14163;-26.142;27.992;2023-08-07T02:40:14;42.73;;;30.40;;
26478;SDS011;14163;-26.142;27.992;2023-08-07T02:42:44;36.83;;;30.30;;
26478;SDS011;14163;-26.142;27.992;2023-08-07T02:45:15;45.27;;;31.97;;
26478;SDS011;14163;-26.142;27.992;2023-08-07T02:47:45;43.63;;;33.60;;
26478;SDS011;14163;-26.142;27.992;2023-08-07T02:50:14;47.87;;;33.60;;
26478;SDS011;14163;-26.142;27.992;2023-08-07T02:52:43;40.37;;;31.77;;
26478;SDS011;14163;-26.142;27.992;2023-08-07T02:55:13;45.40;;;34.10;;
26478;SDS011;14163;-26.142;27.992;2023-08-07T02:57:42;47.17;;;31.40;;
26478;SDS011;14163;-26.142;27.992;2023-08-07T03:00:13;41.10;;;29.60;;
26478;SDS011;14163;-26.142;27.992;2023-08-07T03:02:43;40.47;;;27.80;;
26478;SDS011;14163;-26.142;27.992;2023-08-07T03:05:12;36.40;;;27.00;;
26478;SDS011;14163;-26.142;27.992;2023-08-07T03:07:41;33.57;;;27.27;;
26478;SDS011;14163;-26.142;27.992;2023-08-07T03:10:11;32.03;;;26.03;;
26478;SDS011;14163;-26.142;27.992;2023-08-07T03:12:40;31.50;;;24.80;;
26478;SDS011;14163;-26.142;27.992;2023-08-07T03:15:09;33.90;;;24.33;;
26478;SDS011;14163;-26.142;27.992;2023-08-07T03:17:40;28.80;;;23.13;;
26478;SDS011;14163;-26.142;27.992;2023-08-07T03:20:10;30.63;;;23.40;;
26478;SDS011;14163;-26.142;27.992;2023-08-07T03:22:40;26.37;;;22.50;;
26478;SDS011;14163;-26.142;27.992;2023-08-07T03:25:09;26.07;;;22.17;;
26478;SDS011;14163;-26.142;27.992;2023-08-07T03:27:39;24.00;;;20.17;;
26478;SDS011;14163;-26.142;27.992;2023-08-07T03:30:08;27.50;;;21.50;;
26478;SDS011;14163;-26.142;27.992;2023-08-07T03:32:40;28.23;;;20.50;;
26478;SDS011;14163;-26.142;27.992;2023-08-07T03:35:09;24.10;;;21.00;;
26478;SDS011;14163;-26.142;27.992;2023-08-07T03:37:38;23.27;;;19.70;;
26478;SDS011;14163;-26.142;27.992;2023-08-07T03:40:08;22.23;;;19.60;;
26478;SDS011;14163;-26.142;27.992;2023-08-07T03:42:38;19.60;;;17.53;;
26478;SDS011;14163;-26.142;27.992;2023-08-07T03:45:07;19.87;;;17.17;;
26478;SDS011;14163;-26.142;27.992;2023-08-07T03:47:37;18.80;;;16.60;;
26478;SDS011;14163;-26.142;27.992;2023-08-07T03:50:08;19.57;;;16.80;;
26478;SDS011;14163;-26.142;27.992;2023-08-07T03:52:38;19.30;;;16.10;;
26478;SDS011;14163;-26.142;27.992;2023-08-07T03:55:07;19.17;;;16.07;;
26478;SDS011;14163;-26.142;27.992;2023-08-07T03:57:37;17.27;;;15.47;;
26478;SDS011;14163;-26.142;27.992;2023-08-07T04:00:06;17.80;;;15.87;;
26478;SDS011;14163;-26.142;27.992;2023-08-07T04:02:36;19.17;;;16.40;;
26478;SDS011;14163;-26.142;27.992;2023-08-07T04:05:08;18.83;;;17.00;;
26478;SDS011;14163;-26.142;27.992;2023-08-07T04:07:37;21.37;;;19.10;;
26478;SDS011;14163;-26.142;27.992;2023-08-07T04:10:06;22.57;;;18.50;;
26478;SDS011;14163;-26.142;27.992;2023-08-07T04:12:36;25.73;;;19.00;;
26478;SDS011;14163;-26.142;27.992;2023-08-07T04:15:06;24.77;;;17.90;;
26478;SDS011;14163;-26.142;27.992;2023-08-07T04:17:36;24.50;;;19.33;;
26478;SDS011;14163;-26.142;27.992;2023-08-07T04:20:08;20.10;;;18.00;;
26478;SDS011;14163;-26.142;27.992;2023-08-07T04:22:38;24.70;;;18.20;;
26478;SDS011;14163;-26.142;27.992;2023-08-07T04:25:07;19.83;;;17.83;;
26478;SDS011;14163;-26.142;27.992;2023-08-07T04:27:37;26.50;;;18.77;;
26478;SDS011;14163;-26.142;27.992;2023-08-07T04:30:07;22.50;;;19.30;;
26478;SDS011;14163;-26.142;27.992;2023-08-07T04:32:36;21.73;;;18.57;;
26478;SDS011;14163;-26.142;27.992;2023-08-07T04:35:08;20.40;;;18.30;;
26478;SDS011;14163;-26.142;27.992;2023-08-07T04:37:38;29.00;;;19.87;;
26478;SDS011;14163;-26.142;27.992;2023-08-07T04:40:07;26.77;;;19.70;;
26478;SDS011;14163;-26.142;27.992;2023-08-07T04:42:37;22.93;;;19.03;;
26478;SDS011;14163;-26.142;27.992;2023-08-07T04:45:07;23.93;;;19.80;;
26478;SDS011;14163;-26.142;27.992;2023-08-07T04:47:37;22.83;;;20.00;;
26478;SDS011;14163;-26.142;27.992;2023-08-07T04:50:09;22.67;;;20.33;;
26478;SDS011;14163;-26.142;27.992;2023-08-07T04:52:38;34.67;;;22.10;;
26478;SDS011;14163;-26.142;27.992;2023-08-07T04:55:08;26.17;;;20.47;;
26478;SDS011;14163;-26.142;27.992;2023-08-07T04:57:37;26.23;;;19.40;;
26478;SDS011;14163;-26.142;27.992;2023-08-07T05:00:07;24.00;;;19.63;;
26478;SDS011;14163;-26.142;27.992;2023-08-07T05:02:37;34.17;;;21.67;;
26478;SDS011;14163;-26.142;27.992;2023-08-07T05:05:08;28.73;;;19.23;;
26478;SDS011;14163;-26.142;27.992;2023-08-07T05:07:37;24.50;;;18.43;;
26478;SDS011;14163;-26.142;27.992;2023-08-07T05:10:07;28.27;;;19.20;;
26478;SDS011;14163;-26.142;27.992;2023-08-07T05:12:37;23.30;;;19.10;;
26478;SDS011;14163;-26.142;27.992;2023-08-07T05:15:06;27.87;;;18.27;;
26478;SDS011;14163;-26.142;27.992;2023-08-07T05:17:36;24.87;;;17.60;;
26478;SDS011;14163;-26.142;27.992;2023-08-07T05:20:06;34.37;;;19.47;;
26478;SDS011;14163;-26.142;27.992;2023-08-07T05:22:38;45.70;;;21.40;;
26478;SDS011;14163;-26.142;27.992;2023-08-07T05:25:07;38.27;;;20.87;;
26478;SDS011;14163;-26.142;27.992;2023-08-07T05:27:38;32.70;;;20.13;;
26478;SDS011;14163;-26.142;27.992;2023-08-07T05:30:07;25.87;;;20.17;;
26478;SDS011;14163;-26.142;27.992;2023-08-07T05:32:37;25.60;;;18.70;;
26478;SDS011;14163;-26.142;27.992;2023-08-07T05:35:09;24.77;;;18.67;;
26478;SDS011;14163;-26.142;27.992;2023-08-07T05:37:38;25.67;;;18.20;;
26478;SDS011;14163;-26.142;27.992;2023-08-07T05:40:08;37.60;;;19.37;;
26478;SDS011;14163;-26.142;27.992;2023-08-07T05:42:37;29.70;;;18.67;;
26478;SDS011;14163;-26.142;27.992;2023-08-07T05:45:07;37.87;;;20.40;;
26478;SDS011;14163;-26.142;27.992;2023-08-07T05:47:38;40.13;;;21.13;;
26478;SDS011;14163;-26.142;27.992;2023-08-07T05:50:07;26.30;;;20.80;;
26478;SDS011;14163;-26.142;27.992;2023-08-07T05:52:38;28.13;;;22.00;;
26478;SDS011;14163;-26.142;27.992;2023-08-07T05:55:08;23.77;;;20.50;;
26478;SDS011;14163;-26.142;27.992;2023-08-07T05:57:37;29.00;;;19.60;;
26478;SDS011;14163;-26.142;27.992;2023-08-07T06:00:07;25.43;;;20.30;;
26478;SDS011;14163;-26.142;27.992;2023-08-07T06:02:41;26.83;;;20.03;;
26478;SDS011;14163;-26.142;27.992;2023-08-07T06:05:12;24.20;;;18.57;;
26478;SDS011;14163;-26.142;27.992;2023-08-07T06:07:42;23.53;;;18.77;;
26478;SDS011;14163;-26.142;27.992;2023-08-07T06:10:11;27.10;;;20.20;;
26478;SDS011;14163;-26.142;27.992;2023-08-07T06:12:41;29.17;;;19.00;;
26478;SDS011;14163;-26.142;27.992;2023-08-07T06:15:10;24.80;;;18.87;;
26478;SDS011;14163;-26.142;27.992;2023-08-07T06:17:39;27.70;;;18.63;;
26478;SDS011;14163;-26.142;27.992;2023-08-07T06:20:09;24.03;;;18.60;;
26478;SDS011;14163;-26.142;27.992;2023-08-07T06:22:41;22.53;;;18.93;;
26478;SDS011;14163;-26.142;27.992;2023-08-07T06:25:11;24.97;;;19.77;;
26478;SDS011;14163;-26.142;27.992;2023-08-07T06:27:40;25.43;;;18.20;;
26478;SDS011;14163;-26.142;27.992;2023-08-07T06:30:10;29.10;;;18.80;;
26478;SDS011;14163;-26.142;27.992;2023-08-07T06:32:40;21.50;;;19.07;;
26478;SDS011;14163;-26.142;27.992;2023-08-07T06:35:09;25.37;;;20.07;;
26478;SDS011;14163;-26.142;27.992;2023-08-07T06:37:40;27.37;;;19.27;;
26478;SDS011;14163;-26.142;27.992;2023-08-07T06:40:10;21.80;;;18.60;;
26478;SDS011;14163;-26.142;27.992;2023-08-07T06:42:40;23.87;;;18.90;;
26478;SDS011;14163;-26.142;27.992;2023-08-07T06:45:09;25.50;;;21.10;;
26478;SDS011;14163;-26.142;27.992;2023-08-07T06:47:39;25.23;;;20.33;;
26478;SDS011;14163;-26.142;27.992;2023-08-07T06:50:08;24.40;;;20.50;;
26478;SDS011;14163;-26.142;27.992;2023-08-07T06:52:40;22.57;;;20.17;;
26478;SDS011;14163;-26.142;27.992;2023-08-07T06:55:09;28.27;;;20.67;;
26478;SDS011;14163;-26.142;27.992;2023-08-07T06:57:38;25.07;;;20.57;;
26478;SDS011;14163;-26.142;27.992;2023-08-07T07:00:08;22.40;;;19.73;;
26478;SDS011;14163;-26.142;27.992;2023-08-07T07:02:38;25.97;;;20.60;;
26478;SDS011;14163;-26.142;27.992;2023-08-07T07:05:07;24.37;;;20.03;;
26478;SDS011;14163;-26.142;27.992;2023-08-07T07:07:37;24.23;;;18.40;;
26478;SDS011;14163;-26.142;27.992;2023-08-07T07:10:09;24.07;;;18.73;;
26478;SDS011;14163;-26.142;27.992;2023-08-07T07:12:38;21.67;;;18.00;;
26478;SDS011;14163;-26.142;27.992;2023-08-07T07:15:08;21.40;;;19.30;;
26478;SDS011;14163;-26.142;27.992;2023-08-07T07:17:38;27.20;;;18.33;;
26478;SDS011;14163;-26.142;27.992;2023-08-07T07:20:08;23.57;;;20.30;;
26478;SDS011;14163;-26.142;27.992;2023-08-07T07:22:39;33.30;;;23.07;;
26478;SDS011;14163;-26.142;27.992;2023-08-07T07:25:09;29.40;;;22.33;;
26478;SDS011;14163;-26.142;27.992;2023-08-07T07:27:39;26.73;;;22.73;;
26478;SDS011;14163;-26.142;27.992;2023-08-07T07:30:09;42.10;;;29.57;;
26478;SDS011;14163;-26.142;27.992;2023-08-07T07:32:38;34.73;;;27.23;;
26478;SDS011;14163;-26.142;27.992;2023-08-07T07:35:08;37.93;;;27.50;;
26478;SDS011;14163;-26.142;27.992;2023-08-07T07:37:39;35.87;;;24.93;;
26478;SDS011;14163;-26.142;27.992;2023-08-07T07:40:09;32.10;;;22.67;;
26478;SDS011;14163;-26.142;27.992;2023-08-07T07:42:39;24.57;;;18.33;;
26478;SDS011;14163;-26.142;27.992;2023-08-07T07:45:08;18.60;;;15.87;;
26478;SDS011;14163;-26.142;27.992;2023-08-07T07:47:38;16.90;;;13.93;;
26478;SDS011;14163;-26.142;27.992;2023-08-07T07:50:07;21.13;;;13.10;;
26478;SDS011;14163;-26.142;27.992;2023-08-07T07:52:40;19.60;;;13.67;;
26478;SDS011;14163;-26.142;27.992;2023-08-07T07:55:09;20.83;;;12.40;;
26478;SDS011;14163;-26.142;27.992;2023-08-07T07:57:39;17.47;;;10.80;;
26478;SDS011;14163;-26.142;27.992;2023-08-07T08:00:09;16.00;;;10.87;;
26478;SDS011;14163;-26.142;27.992;2023-08-07T08:02:39;14.80;;;9.80;;
26478;SDS011;14163;-26.142;27.992;2023-08-07T08:05:09;12.23;;;9.93;;
26478;SDS011;14163;-26.142;27.992;2023-08-07T08:07:40;13.93;;;10.20;;
26478;SDS011;14163;-26.142;27.992;2023-08-07T08:10:10;13.00;;;9.10;;
26478;SDS011;14163;-26.142;27.992;2023-08-07T08:12:39;12.03;;;8.93;;
26478;SDS011;14163;-26.142;27.992;2023-08-07T08:15:09;11.90;;;8.83;;
26478;SDS011;14163;-26.142;27.992;2023-08-07T08:17:38;12.67;;;7.70;;
26478;SDS011;14163;-26.142;27.992;2023-08-07T08:20:08;9.50;;;8.00;;
26478;SDS011;14163;-26.142;27.992;2023-08-07T08:22:42;12.57;;;7.80;;
26478;SDS011;14163;-26.142;27.992;2023-08-07T08:25:12;10.20;;;8.80;;
26478;SDS011;14163;-26.142;27.992;2023-08-07T08:27:43;12.90;;;8.60;;
26478;SDS011;14163;-26.142;27.992;2023-08-07T08:30:12;11.53;;;7.13;;
26478;SDS011;14163;-26.142;27.992;2023-08-07T08:32:42;8.13;;;6.90;;
26478;SDS011;14163;-26.142;27.992;2023-08-07T08:35:12;8.03;;;7.23;;
26478;SDS011;14163;-26.142;27.992;2023-08-07T08:37:43;8.20;;;7.17;;
26478;SDS011;14163;-26.142;27.992;2023-08-07T08:40:12;7.70;;;6.93;;
26478;SDS011;14163;-26.142;27.992;2023-08-07T08:42:43;10.17;;;7.37;;
26478;SDS011;14163;-26.142;27.992;2023-08-07T08:45:13;9.27;;;6.47;;
26478;SDS011;14163;-26.142;27.992;2023-08-07T08:47:43;8.43;;;7.03;;
26478;SDS011;14163;-26.142;27.992;2023-08-07T08:50:13;6.93;;;6.33;;
26478;SDS011;14163;-26.142;27.992;2023-08-07T08:52:45;8.07;;;7.10;;
26478;SDS011;14163;-26.142;27.992;2023-08-07T08:55:14;7.50;;;6.80;;
26478;SDS011;14163;-26.142;27.992;2023-08-07T08:57:44;8.67;;;7.43;;
26478;SDS011;14163;-26.142;27.992;2023-08-07T09:00:13;8.53;;;7.60;;
26478;SDS011;14163;-26.142;27.992;2023-08-07T09:02:47;10.73;;;7.77;;
26478;SDS011;14163;-26.142;27.992;2023-08-07T09:05:17;7.90;;;7.20;;
26478;SDS011;14163;-26.142;27.992;2023-08-07T09:07:49;12.73;;;8.07;;
26478;SDS011;14163;-26.142;27.992;2023-08-07T09:10:19;8.80;;;7.97;;
26478;SDS011;14163;-26.142;27.992;2023-08-07T09:12:51;9.23;;;8.40;;
26478;SDS011;14163;-26.142;27.992;2023-08-07T09:15:25;9.50;;;7.83;;
26478;SDS011;14163;-26.142;27.992;2023-08-07T09:17:55;9.27;;;8.33;;
26478;SDS011;14163;-26.142;27.992;2023-08-07T09:20:26;9.13;;;8.23;;
26478;SDS011;14163;-26.142;27.992;2023-08-07T09:23:02;10.97;;;8.33;;
26478;SDS011;14163;-26.142;27.992;2023-08-07T09:25:32;9.60;;;8.10;;
26478;SDS011;14163;-26.142;27.992;2023-08-07T09:28:02;13.83;;;9.53;;
26478;SDS011;14163;-26.142;27.992;2023-08-07T09:30:32;9.67;;;8.73;;
26478;SDS011;14163;-26.142;27.992;2023-08-07T09:33:03;10.93;;;8.70;;
26478;SDS011;14163;-26.142;27.992;2023-08-07T09:35:36;10.53;;;8.53;;
26478;SDS011;14163;-26.142;27.992;2023-08-07T09:38:07;9.57;;;8.67;;
26478;SDS011;14163;-26.142;27.992;2023-08-07T09:40:37;9.90;;;8.90;;
26478;SDS011;14163;-26.142;27.992;2023-08-07T09:43:07;10.73;;;9.37;;
26478;SDS011;14163;-26.142;27.992;2023-08-07T09:45:37;10.70;;;9.67;;
26478;SDS011;14163;-26.142;27.992;2023-08-07T09:48:09;11.77;;;9.60;;
26478;SDS011;14163;-26.142;27.992;2023-08-07T09:50:38;13.63;;;9.30;;
26478;SDS011;14163;-26.142;27.992;2023-08-07T09:53:11;9.07;;;8.27;;
26478;SDS011;14163;-26.142;27.992;2023-08-07T09:55:41;11.43;;;10.40;;
26478;SDS011;14163;-26.142;27.992;2023-08-07T09:58:11;9.70;;;9.00;;
26478;SDS011;14163;-26.142;27.992;2023-08-07T10:00:41;11.43;;;9.00;;
26478;SDS011;14163;-26.142;27.992;2023-08-07T10:03:11;10.43;;;9.37;;
26478;SDS011;14163;-26.142;27.992;2023-08-07T10:05:43;10.10;;;8.30;;
26478;SDS011;14163;-26.142;27.992;2023-08-07T10:08:15;10.60;;;8.67;;
26478;SDS011;14163;-26.142;27.992;2023-08-07T10:10:46;8.87;;;8.07;;
26478;SDS011;14163;-26.142;27.992;2023-08-07T10:13:16;9.37;;;8.67;;
26478;SDS011;14163;-26.142;27.992;2023-08-07T10:15:47;8.87;;;8.20;;
26478;SDS011;14163;-26.142;27.992;2023-08-07T10:18:16;9.43;;;7.80;;
26478;SDS011;14163;-26.142;27.992;2023-08-07T10:20:47;10.37;;;9.50;;
26478;SDS011;14163;-26.142;27.992;2023-08-07T10:23:19;10.43;;;9.53;;
26478;SDS011;14163;-26.142;27.992;2023-08-07T10:25:50;13.03;;;10.40;;
26478;SDS011;14163;-26.142;27.992;2023-08-07T10:28:19;10.93;;;9.93;;
26478;SDS011;14163;-26.142;27.992;2023-08-07T10:30:50;11.50;;;10.43;;
26478;SDS011;14163;-26.142;27.992;2023-08-07T10:33:20;11.27;;;10.10;;
26478;SDS011;14163;-26.142;27.992;2023-08-07T10:35:51;11.37;;;10.37;;
26478;SDS011;14163;-26.142;27.992;2023-08-07T10:38:23;10.60;;;9.60;;
26478;SDS011;14163;-26.142;27.992;2023-08-07T10:40:59;9.60;;;8.83;;
26478;SDS011;14163;-26.142;27.992;2023-08-07T10:43:29;11.10;;;10.10;;
26478;SDS011;14163;-26.142;27.992;2023-08-07T10:46:09;10.70;;;9.60;;
26478;SDS011;14163;-26.142;27.992;2023-08-07T10:48:40;12.50;;;11.30;;
26478;SDS011;14163;-26.142;27.992;2023-08-07T10:51:12;13.50;;;10.87;;
26478;SDS011;14163;-26.142;27.992;2023-08-07T10:53:44;12.83;;;11.50;;
26478;SDS011;14163;-26.142;27.992;2023-08-07T10:56:16;12.60;;;11.03;;
26478;SDS011;14163;-26.142;27.992;2023-08-07T10:58:49;13.57;;;11.30;;
26478;SDS011;14163;-26.142;27.992;2023-08-07T11:01:24;12.87;;;11.17;;
26478;SDS011;14163;-26.142;27.992;2023-08-07T11:04:09;11.50;;;10.57;;
26478;SDS011;14163;-26.142;27.992;2023-08-07T11:06:40;11.70;;;10.70;;
26478;SDS011;14163;-26.142;27.992;2023-08-07T11:09:13;11.70;;;10.70;;
26478;SDS011;14163;-26.142;27.992;2023-08-07T11:11:43;13.93;;;12.60;;
26478;SDS011;14163;-26.142;27.992;2023-08-07T11:14:14;16.67;;;13.60;;
26478;SDS011;14163;-26.142;27.992;2023-08-07T11:16:44;13.33;;;12.23;;
26478;SDS011;14163;-26.142;27.992;2023-08-07T11:19:14;13.70;;;12.50;;
26478;SDS011;14163;-26.142;27.992;2023-08-07T11:21:45;19.27;;;13.47;;
26478;SDS011;14163;-26.142;27.992;2023-08-07T11:24:18;14.23;;;12.80;;
26478;SDS011;14163;-26.142;27.992;2023-08-07T11:26:49;13.57;;;12.00;;
26478;SDS011;14163;-26.142;27.992;2023-08-07T11:29:21;16.03;;;14.20;;
26478;SDS011;14163;-26.142;27.992;2023-08-07T11:31:50;14.77;;;13.37;;
26478;SDS011;14163;-26.142;27.992;2023-08-07T11:34:20;12.77;;;11.77;;
26478;SDS011;14163;-26.142;27.992;2023-08-07T11:36:49;13.30;;;12.00;;
26478;SDS011;14163;-26.142;27.992;2023-08-07T11:39:22;14.50;;;13.17;;
26478;SDS011;14163;-26.142;27.992;2023-08-07T11:41:52;16.03;;;14.60;;
26478;SDS011;14163;-26.142;27.992;2023-08-07T11:44:22;15.50;;;14.23;;
26478;SDS011;14163;-26.142;27.992;2023-08-07T11:46:52;14.50;;;13.30;;
26478;SDS011;14163;-26.142;27.992;2023-08-07T11:49:21;19.83;;;14.23;;
26478;SDS011;14163;-26.142;27.992;2023-08-07T11:51:52;17.07;;;15.57;;
26478;SDS011;14163;-26.142;27.992;2023-08-07T11:54:24;16.73;;;15.07;;
26478;SDS011;14163;-26.142;27.992;2023-08-07T11:56:56;17.00;;;15.47;;
26478;SDS011;14163;-26.142;27.992;2023-08-07T11:59:26;18.40;;;14.50;;
26478;SDS011;14163;-26.142;27.992;2023-08-07T12:01:55;15.53;;;14.13;;
26478;SDS011;14163;-26.142;27.992;2023-08-07T12:04:24;14.80;;;13.47;;
26478;SDS011;14163;-26.142;27.992;2023-08-07T12:06:54;13.83;;;12.40;;
26478;SDS011;14163;-26.142;27.992;2023-08-07T12:09:27;19.97;;;12.90;;
26478;SDS011;14163;-26.142;27.992;2023-08-07T12:11:58;14.23;;;13.00;;
26478;SDS011;14163;-26.142;27.992;2023-08-07T12:14:30;14.70;;;13.30;;
26478;SDS011;14163;-26.142;27.992;2023-08-07T12:17:01;16.87;;;15.27;;
26478;SDS011;14163;-26.142;27.992;2023-08-07T12:19:37;20.30;;;15.30;;
26478;SDS011;14163;-26.142;27.992;2023-08-07T12:22:10;17.43;;;15.53;;
26478;SDS011;14163;-26.142;27.992;2023-08-07T12:24:43;16.17;;;14.57;;
26478;SDS011;14163;-26.142;27.992;2023-08-07T12:27:13;19.23;;;14.40;;
26478;SDS011;14163;-26.142;27.992;2023-08-07T12:29:42;14.17;;;12.87;;
26478;SDS011;14163;-26.142;27.992;2023-08-07T12:32:12;13.90;;;12.60;;
26478;SDS011;14163;-26.142;27.992;2023-08-07T12:34:41;12.93;;;11.70;;
26478;SDS011;14163;-26.142;27.992;2023-08-07T12:37:10;14.60;;;13.10;;
26478;SDS011;14163;-26.142;27.992;2023-08-07T12:39:40;15.33;;;13.77;;
26478;SDS011;14163;-26.142;27.992;2023-08-07T12:42:11;15.40;;;14.00;;
26478;SDS011;14163;-26.142;27.992;2023-08-07T12:44:40;15.07;;;13.67;;
26478;SDS011;14163;-26.142;27.992;2023-08-07T12:47:10;16.83;;;14.47;;
26478;SDS011;14163;-26.142;27.992;2023-08-07T12:49:40;20.40;;;14.37;;
26478;SDS011;14163;-26.142;27.992;2023-08-07T12:52:11;15.90;;;14.30;;
26478;SDS011;14163;-26.142;27.992;2023-08-07T12:54:44;14.53;;;13.33;;
26478;SDS011;14163;-26.142;27.992;2023-08-07T12:57:14;14.43;;;13.03;;
26478;SDS011;14163;-26.142;27.992;2023-08-07T12:59:43;15.20;;;13.87;;
26478;SDS011;14163;-26.142;27.992;2023-08-07T13:02:12;14.97;;;13.70;;
26478;SDS011;14163;-26.142;27.992;2023-08-07T13:04:41;15.70;;;14.27;;
26478;SDS011;14163;-26.142;27.992;2023-08-07T13:07:13;17.80;;;14.00;;
26478;SDS011;14163;-26.142;27.992;2023-08-07T13:09:45;21.87;;;14.47;;
26478;SDS011;14163;-26.142;27.992;2023-08-07T13:12:14;13.63;;;12.37;;
26478;SDS011;14163;-26.142;27.992;2023-08-07T13:14:44;13.87;;;12.53;;
26478;SDS011;14163;-26.142;27.992;2023-08-07T13:17:13;13.53;;;12.30;;
26478;SDS011;14163;-26.142;27.992;2023-08-07T13:19:42;14.90;;;13.50;;
26478;SDS011;14163;-26.142;27.992;2023-08-07T13:22:12;16.60;;;12.87;;
26478;SDS011;14163;-26.142;27.992;2023-08-07T13:24:41;15.40;;;13.60;;
26478;SDS011;14163;-26.142;27.992;2023-08-07T13:27:12;15.47;;;13.87;;
26478;SDS011;14163;-26.142;27.992;2023-08-07T13:29:45;14.73;;;13.33;;
26478;SDS011;14163;-26.142;27.992;2023-08-07T13:32:14;14.20;;;12.87;;
26478;SDS011;14163;-26.142;27.992;2023-08-07T13:34:46;14.03;;;12.73;;
26478;SDS011;14163;-26.142;27.992;2023-08-07T13:37:15;13.83;;;12.53;;
26478;SDS011;14163;-26.142;27.992;2023-08-07T13:39:44;16.20;;;13.40;;
26478;SDS011;14163;-26.142;27.992;2023-08-07T13:42:17;13.30;;;12.03;;
26478;SDS011;14163;-26.142;27.992;2023-08-07T13:44:46;13.80;;;12.53;;
26478;SDS011;14163;-26.142;27.992;2023-08-07T13:47:15;13.70;;;12.47;;
26478;SDS011;14163;-26.142;27.992;2023-08-07T13:49:46;14.27;;;12.90;;
26478;SDS011;14163;-26.142;27.992;2023-08-07T13:52:15;14.30;;;12.23;;
26478;SDS011;14163;-26.142;27.992;2023-08-07T13:54:45;13.30;;;11.90;;
26478;SDS011;14163;-26.142;27.992;2023-08-07T13:57:14;14.00;;;12.47;;
26478;SDS011;14163;-26.142;27.992;2023-08-07T13:59:45;12.20;;;11.10;;
26478;SDS011;14163;-26.142;27.992;2023-08-07T14:02:14;13.17;;;11.90;;
26478;SDS011;14163;-26.142;27.992;2023-08-07T16:05:43;20.03;;;16.17;;
26478;SDS011;14163;-26.142;27.992;2023-08-07T16:08:13;19.43;;;14.50;;
26478;SDS011;14163;-26.142;27.992;2023-08-07T16:10:42;19.20;;;15.87;;
26478;SDS011;14163;-26.142;27.992;2023-08-07T16:13:13;18.60;;;14.50;;
26478;SDS011;14163;-26.142;27.992;2023-08-07T16:15:44;17.63;;;14.83;;
26478;SDS011;14163;-26.142;27.992;2023-08-07T16:18:24;17.53;;;15.03;;
26478;SDS011;14163;-26.142;27.992;2023-08-07T16:20:56;19.40;;;14.27;;